createdAt,value
2019-04-29T00:00:25.339Z,16.03
2019-04-29T00:03:00.131Z,16.67
2019-04-29T00:05:33.801Z,15.40
2019-04-29T00:08:07.643Z,16.97
2019-04-29T00:10:41.567Z,16.27
2019-04-29T00:13:15.308Z,16.17
2019-04-29T00:15:59.107Z,15.80
2019-04-29T00:18:43.137Z,15.93
2019-04-29T00:21:17.705Z,14.97
2019-04-29T00:24:03.267Z,14.07
2019-04-29T00:26:26.739Z,13.87
2019-04-29T00:29:00.386Z,14.77
2019-04-29T00:31:34.127Z,14.80
2019-04-29T00:34:07.741Z,15.00
2019-04-29T00:36:48.942Z,15.77
2019-04-29T00:39:33.199Z,15.77
2019-04-29T00:42:29.326Z,16.53
2019-04-29T00:45:03.367Z,16.40
2019-04-29T00:47:36.953Z,14.87
2019-04-29T00:50:11.262Z,16.00
2019-04-29T00:52:44.898Z,15.97
2019-04-29T00:55:26.190Z,15.57
2019-04-29T00:58:00.888Z,16.17
2019-04-29T01:00:36.760Z,16.30
2019-04-29T01:03:10.260Z,17.33
2019-04-29T01:05:43.857Z,15.30
2019-04-29T01:08:17.566Z,16.13
2019-04-29T01:10:52.306Z,15.20
2019-04-29T01:13:27.308Z,16.43
2019-04-29T01:16:00.911Z,16.47
2019-04-29T01:18:34.544Z,16.90
2019-04-29T01:21:08.158Z,16.63
2019-04-29T01:23:41.883Z,18.07
2019-04-29T01:26:32.030Z,17.57
2019-04-29T01:29:07.300Z,18.97
2019-04-29T01:31:40.898Z,18.20
2019-04-29T01:34:25.051Z,18.33
2019-04-29T01:36:58.577Z,19.10
2019-04-29T01:39:36.883Z,19.57
2019-04-29T01:42:25.307Z,19.53
2019-04-29T01:44:59.171Z,19.53
2019-04-29T01:47:32.748Z,20.47
2019-04-29T01:50:06.589Z,20.17
2019-04-29T01:52:40.674Z,22.00
2019-04-29T01:55:14.372Z,22.03
2019-04-29T01:57:47.981Z,22.57
2019-04-29T02:00:21.890Z,22.63
2019-04-29T02:02:55.485Z,21.87
2019-04-29T02:05:29.026Z,23.03
2019-04-29T02:08:02.626Z,22.50
2019-04-29T02:10:36.263Z,23.10
2019-04-29T02:13:09.926Z,22.00
2019-04-29T02:15:43.495Z,21.93
2019-04-29T02:18:17.105Z,21.80
2019-04-29T02:20:50.866Z,21.57
2019-04-29T02:23:29.140Z,21.73
2019-04-29T02:26:02.747Z,22.50
2019-04-29T02:28:36.574Z,22.37
2019-04-29T02:31:27.807Z,22.23
2019-04-29T02:34:01.382Z,22.53
2019-04-29T02:36:35.112Z,22.97
2019-04-29T02:39:12.333Z,23.62
2019-04-29T02:41:56.598Z,25.13
2019-04-29T02:44:30.829Z,25.20
2019-04-29T02:47:04.512Z,26.27
2019-04-29T02:49:38.694Z,26.57
2019-04-29T02:52:12.769Z,26.17
2019-04-29T02:54:47.819Z,27.98
2019-04-29T02:57:23.680Z,29.00
2019-04-29T03:00:08.400Z,28.27
2019-04-29T03:02:46.691Z,29.40
2019-04-29T03:05:25.491Z,29.57
2019-04-29T03:07:59.806Z,31.35
2019-04-29T03:10:34.000Z,31.10
2019-04-29T03:13:08.306Z,30.65
2019-04-29T03:15:43.411Z,30.68
2019-04-29T03:18:17.668Z,29.85
2019-04-29T03:20:59.034Z,29.90
2019-04-29T03:23:32.970Z,31.30
2019-04-29T03:26:06.538Z,30.43
2019-04-29T03:28:40.097Z,30.33
2019-04-29T03:31:14.251Z,29.37
2019-04-29T03:33:47.854Z,32.30
2019-04-29T03:36:21.527Z,30.00
2019-04-29T03:38:55.161Z,29.07
2019-04-29T03:41:28.703Z,25.87
2019-04-29T03:44:03.293Z,25.60
2019-04-29T03:46:36.910Z,25.47
2019-04-29T03:49:10.561Z,25.90
2019-04-29T03:51:44.352Z,25.93
2019-04-29T03:54:18.810Z,28.45
2019-04-29T03:56:52.421Z,30.40
2019-04-29T03:59:28.037Z,29.17
2019-04-29T04:02:15.335Z,31.83
2019-04-29T04:05:06.646Z,32.73
2019-04-29T04:07:44.578Z,32.40
2019-04-29T04:10:18.253Z,32.17
2019-04-29T04:12:52.985Z,33.50
2019-04-29T04:15:27.149Z,34.92
2019-04-29T04:18:05.951Z,33.20
2019-04-29T04:20:41.242Z,34.55
2019-04-29T04:23:15.414Z,32.23
2019-04-29T04:25:50.095Z,33.13
2019-04-29T04:28:24.364Z,33.85
2019-04-29T04:30:58.613Z,33.00
2019-04-29T04:33:32.830Z,32.83
2019-04-29T04:36:06.990Z,30.35
2019-04-29T04:38:41.186Z,28.70
2019-04-29T04:41:15.497Z,28.80
2019-04-29T04:43:49.705Z,27.95
2019-04-29T04:46:23.892Z,24.87
2019-04-29T04:48:58.067Z,24.30
2019-04-29T04:51:32.258Z,22.42
2019-04-29T04:54:06.508Z,23.02
2019-04-29T04:56:40.709Z,22.25
2019-04-29T04:59:14.814Z,23.47
2019-04-29T05:01:49.033Z,22.13
2019-04-29T05:04:24.520Z,22.05
2019-04-29T05:06:58.600Z,21.33
2019-04-29T05:09:32.208Z,20.97
2019-04-29T05:12:06.361Z,19.23
2019-04-29T05:14:41.975Z,17.32
2019-04-29T05:17:18.690Z,18.35
2019-04-29T05:19:52.867Z,16.97
2019-04-29T05:22:26.967Z,15.23
2019-04-29T05:25:01.220Z,15.70
2019-04-29T05:27:35.457Z,15.00
2019-04-29T05:30:10.396Z,14.05
2019-04-29T05:32:46.061Z,13.20
2019-04-29T05:35:24.829Z,13.55
2019-04-29T05:38:08.102Z,14.65
2019-04-29T05:40:46.931Z,13.88
2019-04-29T05:43:27.129Z,13.45
2019-04-29T05:46:07.494Z,13.13
2019-04-29T05:48:42.125Z,15.03
2019-04-29T05:51:17.325Z,14.67
2019-04-29T05:53:55.978Z,15.58
2019-04-29T05:56:30.307Z,16.05
2019-04-29T05:59:08.385Z,15.05
2019-04-29T06:01:42.600Z,12.83
2019-04-29T06:04:16.366Z,11.20
2019-04-29T06:06:50.648Z,8.33
2019-04-29T06:09:27.062Z,7.23
2019-04-29T06:12:00.352Z,6.20
2019-04-29T06:14:33.940Z,5.20
2019-04-29T06:17:07.848Z,4.90
2019-04-29T06:19:42.447Z,4.85
2019-04-29T06:22:16.666Z,4.12
2019-04-29T06:24:50.771Z,4.17
2019-04-29T06:27:24.921Z,4.28
2019-04-29T06:30:03.119Z,4.62
2019-04-29T06:32:34.896Z,3.70
2019-04-29T06:35:10.727Z,4.17
2019-04-29T06:37:45.254Z,3.40
2019-04-29T06:40:19.564Z,3.35
2019-04-29T06:42:55.303Z,3.50
2019-04-29T06:45:29.456Z,3.67
2019-04-29T06:48:03.796Z,3.40
2019-04-29T06:50:37.871Z,3.30
2019-04-29T06:53:16.349Z,3.60
2019-04-29T06:55:47.996Z,3.45
2019-04-29T06:58:22.136Z,3.85
2019-04-29T07:01:01.218Z,3.90
2019-04-29T07:03:34.287Z,3.30
2019-04-29T07:06:08.384Z,3.25
2019-04-29T07:08:42.607Z,2.90
2019-04-29T07:11:18.189Z,2.90
2019-04-29T07:13:53.532Z,3.02
2019-04-29T07:16:31.791Z,2.98
2019-04-29T07:19:04.154Z,2.75
2019-04-29T07:21:41.838Z,2.80
2019-04-29T07:24:15.672Z,2.87
2019-04-29T07:26:49.749Z,2.72
2019-04-29T07:29:29.686Z,3.08
2019-04-29T07:31:59.954Z,2.70
2019-04-29T07:34:39.210Z,2.92
2019-04-29T07:37:10.065Z,3.33
2019-04-29T07:39:44.185Z,2.80
2019-04-29T07:42:18.443Z,3.12
2019-04-29T07:45:10.479Z,3.42
2019-04-29T07:47:56.257Z,3.10
2019-04-29T07:50:26.206Z,2.85
2019-04-29T07:52:58.382Z,3.17
2019-04-29T07:55:32.850Z,3.10
2019-04-29T07:58:06.993Z,2.80
2019-04-29T08:00:44.664Z,3.08
2019-04-29T08:03:18.169Z,2.30
2019-04-29T08:05:54.690Z,2.27
2019-04-29T08:08:30.026Z,2.70
2019-04-29T08:11:05.418Z,2.83
2019-04-29T08:13:39.867Z,2.65
2019-04-29T08:16:17.063Z,2.62
2019-04-29T08:18:53.471Z,3.35
2019-04-29T08:21:28.990Z,3.10
2019-04-29T08:24:03.220Z,2.65
2019-04-29T08:26:38.196Z,2.30
2019-04-29T08:29:13.127Z,3.12
2019-04-29T08:31:47.315Z,2.58
2019-04-29T08:34:23.138Z,3.00
2019-04-29T08:36:58.034Z,3.37
2019-04-29T08:39:32.182Z,3.30
2019-04-29T08:42:09.357Z,2.58
2019-04-29T08:44:48.172Z,2.33
2019-04-29T08:47:30.443Z,2.33
2019-04-29T08:49:59.762Z,2.62
2019-04-29T08:52:33.963Z,2.10
2019-04-29T08:55:08.531Z,2.30
2019-04-29T08:57:42.778Z,2.47
2019-04-29T09:00:17.398Z,3.33
2019-04-29T09:02:51.542Z,3.12
2019-04-29T09:05:25.796Z,3.05
2019-04-29T09:07:59.866Z,3.50
2019-04-29T09:10:36.724Z,3.72
2019-04-29T09:13:09.912Z,3.92
2019-04-29T09:15:44.584Z,3.60
2019-04-29T09:18:18.725Z,4.17
2019-04-29T09:20:52.838Z,3.80
2019-04-29T09:23:31.422Z,3.98
2019-04-29T09:26:24.227Z,4.03
2019-04-29T09:28:59.704Z,3.85
2019-04-29T09:31:34.096Z,4.03
2019-04-29T09:34:09.638Z,3.40
2019-04-29T09:36:48.082Z,3.75
2019-04-29T09:39:21.288Z,3.80
2019-04-29T09:41:57.244Z,3.75
2019-04-29T09:44:47.982Z,3.87
2019-04-29T09:47:23.430Z,3.37
2019-04-29T09:49:59.379Z,3.45
2019-04-29T09:52:33.776Z,3.50
2019-04-29T09:55:08.156Z,3.20
2019-04-29T09:57:42.254Z,3.70
2019-04-29T10:00:30.486Z,3.70
2019-04-29T10:03:07.310Z,4.00
2019-04-29T10:05:45.895Z,3.58
2019-04-29T10:08:20.078Z,4.35
2019-04-29T10:10:54.212Z,3.70
2019-04-29T10:13:28.378Z,3.98
2019-04-29T10:16:13.543Z,4.30
2019-04-29T10:18:49.396Z,4.53
2019-04-29T10:21:24.515Z,3.90
2019-04-29T10:23:58.593Z,4.25
2019-04-29T10:26:32.883Z,4.50
2019-04-29T10:29:08.591Z,4.10
2019-04-29T10:31:43.178Z,3.67
2019-04-29T10:34:18.699Z,3.52
2019-04-29T10:36:53.748Z,4.03
2019-04-29T10:39:45.794Z,4.00
2019-04-29T10:42:24.935Z,3.60
2019-04-29T10:45:12.373Z,3.77
2019-04-29T10:47:50.985Z,3.60
2019-04-29T10:50:32.468Z,4.03
2019-04-29T10:53:10.912Z,3.80
2019-04-29T10:55:44.799Z,3.67
2019-04-29T10:58:21.949Z,4.53
2019-04-29T11:03:55.918Z,4.87
2019-04-29T11:06:33.956Z,4.00
2019-04-29T11:09:16.148Z,4.30
2019-04-29T11:11:50.359Z,3.60
2019-04-29T11:14:24.836Z,4.30
2019-04-29T11:17:00.734Z,3.27
2019-04-29T11:19:39.383Z,3.87
2019-04-29T11:22:12.722Z,3.50
2019-04-29T11:24:48.541Z,3.33
2019-04-29T11:27:24.330Z,3.00
2019-04-29T11:30:02.374Z,3.60
2019-04-29T11:32:44.937Z,2.75
2019-04-29T11:35:20.789Z,2.92
2019-04-29T11:37:59.680Z,2.58
2019-04-29T11:40:43.099Z,3.08
2019-04-29T11:43:10.829Z,2.72
2019-04-29T11:45:43.856Z,2.77
2019-04-29T11:48:17.990Z,2.20
2019-04-29T11:50:55.030Z,2.45
2019-04-29T11:53:29.458Z,2.42
2019-04-29T11:56:03.699Z,2.27
2019-04-29T11:58:39.481Z,2.50
2019-04-29T12:01:37.824Z,2.20
2019-04-29T12:04:08.015Z,2.72
2019-04-29T12:06:43.509Z,2.17
2019-04-29T12:09:17.663Z,2.35
2019-04-29T12:11:51.905Z,2.90
2019-04-29T12:14:33.802Z,2.50
2019-04-29T12:17:17.055Z,2.50
2019-04-29T12:19:55.877Z,3.10
2019-04-29T12:22:30.959Z,2.90
2019-04-29T12:25:06.986Z,2.20
2019-04-29T12:27:41.153Z,2.40
2019-04-29T12:30:17.381Z,3.00
2019-04-29T12:33:01.342Z,2.83
2019-04-29T12:35:51.057Z,2.83
2019-04-29T12:38:24.241Z,2.62
2019-04-29T12:41:20.138Z,2.37
2019-04-29T12:43:59.227Z,2.90
2019-04-29T12:46:44.433Z,3.20
2019-04-29T12:49:18.576Z,2.77
2019-04-29T12:51:52.770Z,2.60
2019-04-29T12:54:26.849Z,3.10
2019-04-29T12:57:01.313Z,2.87
2019-04-29T12:59:37.226Z,2.72
2019-04-29T13:02:28.036Z,3.00
2019-04-29T13:05:09.393Z,2.87
2019-04-29T13:07:48.419Z,2.90
2019-04-29T13:10:33.101Z,2.67
2019-04-29T13:13:07.341Z,2.30
2019-04-29T13:15:48.471Z,2.60
2019-04-29T13:18:36.195Z,2.70
2019-04-29T13:21:12.181Z,2.92
2019-04-29T13:23:59.173Z,2.52
2019-04-29T13:26:28.152Z,2.80
2019-04-29T13:29:01.321Z,2.95
2019-04-29T13:31:39.026Z,2.87
2019-04-29T13:34:23.769Z,2.98
2019-04-29T13:37:06.219Z,3.27
2019-04-29T13:39:39.068Z,3.02
2019-04-29T13:42:08.535Z,3.10
2019-04-29T13:45:04.696Z,3.27
2019-04-29T13:47:33.924Z,2.98
2019-04-29T13:50:20.139Z,2.60
2019-04-29T13:52:48.873Z,3.05
2019-04-29T13:55:46.575Z,2.55
2019-04-29T13:58:01.212Z,2.45
2019-04-29T14:00:42.899Z,2.87
2019-04-29T14:03:18.801Z,3.27
2019-04-29T14:06:03.604Z,2.60
2019-04-29T14:08:30.529Z,2.60
2019-04-29T14:11:05.067Z,2.95
2019-04-29T14:13:43.634Z,3.02
2019-04-29T14:16:19.197Z,3.58
2019-04-29T14:18:53.689Z,3.02
2019-04-29T14:21:30.079Z,3.58
2019-04-29T14:24:04.653Z,2.90
2019-04-29T14:26:41.915Z,3.60
2019-04-29T14:29:14.620Z,3.62
2019-04-29T14:31:54.207Z,3.33
2019-04-29T14:34:34.697Z,3.30
2019-04-29T14:37:25.235Z,3.05
2019-04-29T14:39:42.689Z,3.55
2019-04-29T14:42:35.097Z,3.25
2019-04-29T14:45:22.853Z,3.30
2019-04-29T14:48:01.469Z,3.42
2019-04-29T14:50:35.741Z,3.60
2019-04-29T14:53:11.223Z,3.55
2019-04-29T14:55:45.403Z,3.92
2019-04-29T14:58:19.549Z,3.77
2019-04-29T15:00:55.446Z,3.52
2019-04-29T15:03:34.352Z,3.62
2019-04-29T15:06:08.591Z,3.87
2019-04-29T15:08:42.768Z,3.10
2019-04-29T15:11:30.922Z,3.12
2019-04-29T15:14:01.615Z,3.77
2019-04-29T15:16:40.711Z,3.62
2019-04-29T15:19:32.744Z,3.37
2019-04-29T15:22:08.475Z,4.00
2019-04-29T15:24:42.647Z,3.92
2019-04-29T15:27:18.347Z,4.40
2019-04-29T15:29:52.498Z,4.00
2019-04-29T15:32:28.593Z,4.20
2019-04-29T15:35:02.483Z,4.28
2019-04-29T15:37:36.636Z,4.50
2019-04-29T15:40:11.481Z,5.05
2019-04-29T15:42:48.856Z,4.62
2019-04-29T15:45:21.710Z,4.67
2019-04-29T15:47:56.161Z,4.60
2019-04-29T15:50:32.582Z,5.05
2019-04-29T15:53:06.285Z,4.75
2019-04-29T15:55:41.375Z,4.28
2019-04-29T15:58:15.971Z,4.65
2019-04-29T16:00:50.120Z,4.50
2019-04-29T16:03:24.269Z,4.30
2019-04-29T16:06:21.148Z,4.60
2019-04-29T16:08:49.257Z,4.40
2019-04-29T16:11:35.779Z,4.30
2019-04-29T16:14:14.541Z,5.00
2019-04-29T16:16:49.498Z,4.70
2019-04-29T16:19:23.684Z,4.90
2019-04-29T16:21:57.741Z,4.53
2019-04-29T16:24:37.125Z,4.85
2019-04-29T16:27:10.448Z,4.83
2019-04-29T16:32:23.336Z,5.05
2019-04-29T16:34:57.490Z,4.97
2019-04-29T16:37:32.247Z,4.17
2019-04-29T16:40:10.684Z,4.25
2019-04-29T16:42:52.456Z,4.22
2019-04-29T16:45:34.145Z,3.72
2019-04-29T16:48:08.285Z,4.30
2019-04-29T16:50:42.538Z,3.85
2019-04-29T16:53:16.856Z,4.47
2019-04-29T16:55:50.990Z,3.47
2019-04-29T16:58:25.253Z,3.15
2019-04-29T17:00:59.386Z,3.83
2019-04-29T17:03:33.699Z,3.50
2019-04-29T17:06:07.982Z,3.00
2019-04-29T17:09:03.281Z,3.08
2019-04-29T17:11:36.833Z,2.60
2019-04-29T17:14:12.867Z,3.35
2019-04-29T17:16:46.832Z,2.80
2019-04-29T17:19:21.147Z,2.42
2019-04-29T17:22:23.711Z,2.70
2019-04-29T17:24:31.508Z,2.62
2019-04-29T17:27:22.479Z,2.42
2019-04-29T17:30:15.595Z,2.35
2019-04-29T17:32:51.833Z,2.55
2019-04-29T17:35:14.229Z,3.90
2019-04-29T17:35:28.126Z,2.42
2019-04-29T17:38:02.440Z,2.45
2019-04-29T17:40:37.332Z,2.40
2019-04-29T17:43:13.130Z,2.60
2019-04-29T17:45:51.598Z,2.30
2019-04-29T17:48:42.581Z,2.20
2019-04-29T17:51:17.032Z,2.30
2019-04-29T17:53:52.793Z,2.30
2019-04-29T17:56:31.619Z,2.20
2019-04-29T17:59:16.203Z,2.27
2019-04-29T18:02:01.394Z,2.62
2019-04-29T18:04:37.289Z,2.80
2019-04-29T18:07:25.290Z,2.55
2019-04-29T18:10:01.057Z,2.45
2019-04-29T18:12:40.975Z,3.00
2019-04-29T18:15:17.635Z,2.62
2019-04-29T18:17:48.785Z,3.52
2019-04-29T18:20:32.841Z,3.87
2019-04-29T18:23:20.645Z,3.77
2019-04-29T18:26:07.606Z,4.27
2019-04-29T18:28:41.127Z,4.13
2019-04-29T18:31:14.768Z,3.97
2019-04-29T18:33:48.364Z,4.10
2019-04-29T18:36:24.338Z,3.97
2019-04-29T18:38:58.176Z,4.17
2019-04-29T18:41:31.844Z,4.07
2019-04-29T18:44:07.170Z,4.50
2019-04-29T18:46:45.955Z,4.33
2019-04-29T18:49:16.064Z,4.97
2019-04-29T18:51:49.692Z,4.63
2019-04-29T18:54:25.380Z,4.87
2019-04-29T18:56:58.689Z,5.13
2019-04-29T18:59:33.457Z,5.30
2019-04-29T19:02:09.317Z,4.80
2019-04-29T19:04:53.527Z,5.20
2019-04-29T19:07:25.450Z,4.77
2019-04-29T19:09:59.057Z,5.47
2019-04-29T19:12:36.483Z,5.63
2019-04-29T19:15:11.674Z,5.50
2019-04-29T19:17:45.522Z,5.77
2019-04-29T19:20:20.113Z,4.93
2019-04-29T19:23:05.352Z,5.20
2019-04-29T19:25:28.908Z,5.10
2019-04-29T19:28:11.846Z,5.23
2019-04-29T19:30:37.791Z,5.43
2019-04-29T19:33:11.401Z,6.13
2019-04-29T19:35:45.225Z,4.90
2019-04-29T19:38:18.800Z,5.23
2019-04-29T19:40:52.668Z,5.90
2019-04-29T19:43:26.601Z,5.87
2019-04-29T19:46:01.523Z,5.07
2019-04-29T19:48:36.743Z,5.77
2019-04-29T19:51:16.053Z,5.73
2019-04-29T19:53:49.407Z,6.13
2019-04-29T19:56:24.320Z,5.80
2019-04-29T19:58:58.051Z,5.60
2019-04-29T20:01:32.651Z,6.63
2019-04-29T20:04:19.868Z,6.10
2019-04-29T20:06:49.811Z,6.10
2019-04-29T20:09:25.551Z,5.60
2019-04-29T20:12:04.577Z,5.33
2019-04-29T20:14:37.211Z,5.73
2019-04-29T20:17:31.078Z,5.87
2019-04-29T20:20:11.740Z,6.20
2019-04-29T20:25:21.935Z,5.90
2019-04-29T20:25:29.636Z,6.03
2019-04-29T20:28:05.602Z,5.67
2019-04-29T20:30:34.645Z,5.80
2019-04-29T20:33:11.400Z,5.83
2019-04-29T20:35:45.448Z,5.10
2019-04-29T20:38:19.085Z,5.57
2019-04-29T20:40:52.711Z,6.27
2019-04-29T20:43:29.610Z,6.80
2019-04-29T20:46:02.646Z,5.77
2019-04-29T20:48:37.343Z,6.40
2019-04-29T20:51:13.901Z,6.20
2019-04-29T20:53:48.418Z,6.30
2019-04-29T20:56:27.422Z,6.03
2019-04-29T20:58:57.685Z,5.27
2019-04-29T21:04:10.407Z,5.57
2019-04-29T21:06:59.140Z,6.00
2019-04-29T21:09:22.187Z,6.13
2019-04-29T21:12:12.380Z,5.90
2019-04-29T21:14:47.639Z,5.43
2019-04-29T21:17:30.790Z,5.93
2019-04-29T21:19:57.105Z,5.93
2019-04-29T21:22:30.600Z,5.63
2019-04-29T21:25:06.046Z,6.03
2019-04-29T21:27:39.716Z,6.77
2019-04-29T21:30:13.654Z,5.73
2019-04-29T21:32:47.346Z,6.80
2019-04-29T21:35:31.316Z,6.30
2019-04-29T21:38:09.270Z,5.90
2019-04-29T21:40:46.065Z,6.37
2019-04-29T21:43:22.357Z,6.50
2019-04-29T21:45:56.028Z,5.57
2019-04-29T21:48:35.111Z,5.70
2019-04-29T21:51:11.069Z,5.10
2019-04-29T21:53:43.780Z,4.87
2019-04-29T21:56:19.021Z,4.97
2019-04-29T21:58:53.712Z,5.80
2019-04-29T22:01:34.262Z,5.40
2019-04-29T22:04:06.923Z,4.90
2019-04-29T22:06:41.947Z,5.37
2019-04-29T22:09:20.900Z,5.57
2019-04-29T22:11:55.942Z,6.40
2019-04-29T22:14:31.910Z,5.40
2019-04-29T22:17:06.948Z,4.97
2019-04-29T22:19:42.184Z,5.60
2019-04-29T22:22:19.447Z,5.63
2019-04-29T22:24:57.585Z,5.60
2019-04-29T22:27:29.281Z,5.10
2019-04-29T22:30:05.774Z,4.93
2019-04-29T22:32:39.544Z,6.73
2019-04-29T22:35:13.609Z,6.43
2019-04-29T22:37:48.543Z,5.90
2019-04-29T22:40:25.270Z,4.70
2019-04-29T22:43:08.362Z,5.03
2019-04-29T22:45:39.508Z,4.43
2019-04-29T22:48:19.114Z,4.80
2019-04-29T22:50:49.938Z,4.90
2019-04-29T22:53:24.873Z,4.97
2019-04-29T22:55:58.534Z,4.73
2019-04-29T22:58:32.066Z,4.57
2019-04-29T23:01:06.803Z,4.60
2019-04-29T23:03:41.434Z,4.33
2019-04-29T23:06:15.783Z,4.60
2019-04-29T23:08:49.442Z,4.47
2019-04-29T23:11:23.173Z,4.67
2019-04-29T23:13:56.662Z,4.43
2019-04-29T23:16:31.622Z,5.20
2019-04-29T23:19:09.849Z,5.07
2019-04-29T23:21:47.259Z,5.50
2019-04-29T23:24:22.592Z,4.90
2019-04-29T23:26:56.202Z,6.87
2019-04-29T23:29:29.704Z,7.60
2019-04-29T23:32:04.795Z,8.50
2019-04-29T23:34:38.674Z,8.53
2019-04-29T23:37:12.864Z,8.47
2019-04-29T23:39:46.877Z,8.47
2019-04-29T23:42:22.369Z,7.93
2019-04-29T23:44:57.174Z,7.50
2019-04-29T23:47:30.796Z,8.57
2019-04-29T23:50:04.960Z,9.57
2019-04-29T23:52:38.445Z,8.17
2019-04-29T23:55:12.814Z,6.50
2019-04-29T23:57:48.028Z,5.43
